Flight Track Log - Related Links

Times and Time Zones

All times are in EDT time to prevent confusion due to time zone crossing. See the SKW2678 flight status page for this flight to view local times or setup timezone preferences in your user account.

Time Position Orientation Groundspeed Altitude Reporting Facility
EDT Latitude Longitude Course Direction KTS MPH feet Rate Location/Type
Tue 09:11:50 AM 36.5833 -121.8000 133° Southeast 178 205 2,400  Level Northern Cal TRACON
Tue 09:12:50 AM 36.5833 -121.7167 90° East 248 285 4,600 2,340 Climbing Northern Cal TRACON
Tue 09:15:10 AM 36.4758 -121.5369 127° Southeast 295 339 10,200 1,950 Climbing Oakland Center
Tue 09:16:10 AM 36.4233 -121.4547 128° Southeast 309 356 11,100 1,140 Climbing Oakland Center
Tue 09:17:00 AM 36.3840 -121.2064 133° Southeast  Level FlightAware Approximate
Tue 09:17:11 AM 36.3622 -121.3578 128° Southeast 349 402 12,500  Level Oakland Center
Tue 09:18:11 AM 36.2981 -121.2550 128° Southeast 373 429 14,100 1,686 Climbing Oakland Center
Tue 09:19:12 AM 36.2342 -121.1533 128° Southeast 375 432 15,900 1,636 Climbing Oakland Center
Tue 09:20:12 AM 36.1711 -121.0506 127° Southeast 375 432 17,400 1,388 Climbing Oakland Center
Tue 09:21:13 AM 36.1061 -120.9500 129° Southeast 375 432 18,700 1,082 Climbing Oakland Center
Tue 09:22:14 AM 36.0400 -120.8461 128° Southeast 380 437 19,600 843 Climbing Oakland Center
Tue 09:23:14 AM 35.9719 -120.7392 128° Southeast 393 452 20,400 793 Climbing Oakland Center
Tue 09:24:15 AM 35.9017 -120.6289 128° Southeast 404 465 21,200 793 Climbing Oakland Center
Tue 09:25:15 AM 35.8303 -120.5194 129° Southeast 408 470 22,000 744 Climbing Oakland Center
Tue 09:26:16 AM 35.7583 -120.4092 129° Southeast 411 473 22,700 689 Climbing Oakland Center
Tue 09:27:17 AM 35.6872 -120.2975 128° Southeast 411 473 23,400 645 Climbing Oakland Center
Tue 09:28:17 AM 35.6139 -120.1864 129° Southeast 414 476 24,000 606 Climbing Oakland Center
Tue 09:28:56 AM 35.5625 -120.1283 137° Southeast 419 482 24,400 600 Climbing Los Angeles Center
Tue 09:29:57 AM 35.4744 -120.0339 139° Southeast 414 476 25,000 541 Climbing Los Angeles Center
Tue 09:30:58 AM 35.3844 -119.9408 140° Southeast 419 482 25,500 488 Climbing Los Angeles Center
Tue 09:32:00 AM 35.2956 -119.8467 139° Southeast 420 483 26,000 488 Climbing Los Angeles Center
Tue 09:33:01 AM 35.2053 -119.7531 140° Southeast 422 486 26,500 492 Climbing Los Angeles Center
Tue 09:34:02 AM 35.1156 -119.6592 139° Southeast 424 488 27,000 246 Climbing Los Angeles Center
Tue 09:35:03 AM 35.0056 -119.5456 140° Southeast 429 494 27,000  Level Los Angeles Center
Tue 09:36:05 AM 34.9131 -119.4489 139° Southeast 437 503 27,000 -244 Level Los Angeles Center
Tue 09:37:06 AM 34.8378 -119.3725 140° Southeast 440 506 26,500 -1,770 Descending Los Angeles Center
Tue 09:38:07 AM 34.7197 -119.2506 140° Southeast 460 529 23,400 -2,878 Descending Los Angeles Center
Tue 09:39:09 AM 34.6200 -119.1508 141° Southeast 454 522 20,600 -2,634 Descending Los Angeles Center
Tue 09:40:10 AM 34.5283 -119.0583 140° Southeast 425 489 18,000 -2,439 Descending Los Angeles Center
Tue 09:41:12 AM 34.4433 -118.9692 139° Southeast 397 457 15,600 -2,341 Descending Los Angeles Center
Tue 09:42:13 AM 34.3586 -118.8878 142° Southeast 388 447 13,200 -1,770 Descending Los Angeles Center
Tue 09:43:14 AM 34.2611 -118.8467 161° South 372 428 12,000 -585 Descending Los Angeles Center
Tue 09:44:16 AM 34.1703 -118.8133 163° South 342 394 12,000 -390 Level Los Angeles Center
Tue 09:45:17 AM 34.0828 -118.7808 163° South 271 312 11,200 -927 Descending Los Angeles Center
Tue 09:46:19 AM 34.0356 -118.7278 137° Southeast 260 299 10,100 -683 Descending Los Angeles Center
Tue 09:47:20 AM 34.0275 -118.6367 96° East 254 292 9,800 -683 Descending Los Angeles Center
Tue 09:48:22 AM 34.0194 -118.5528 97° East 251 289 8,700 -1,073 Descending Los Angeles Center
Tue 09:49:23 AM 34.0117 -118.4714 97° East 244 281 7,600 -1,024 Descending Los Angeles Center
Tue 09:50:25 AM 34.0236 -118.4036 78° East 228 262 6,600 -1,210 Descending Los Angeles Center
Tue 09:51:27 AM 34.0333 -118.3328 81° East 215 247 5,100 -1,220 Descending Los Angeles Center
Tue 09:52:28 AM 34.0425 -118.2792 78° East 208 239 4,100 -537 Descending Los Angeles Center
Tue 09:53:30 AM 34.0161 -118.2242 120° Southeast 198 228 4,000 -489 Descending Los Angeles Center
Tue 09:54:43 AM 33.9664 -118.2528 206° Southwest 181 208 3,000 -1,022 Descending Los Angeles Center
Tue 09:55:45 AM 33.9628 -118.3192 266° West 171 197 1,700 -1,016 Descending Los Angeles Center
Tue 09:56:47 AM 33.9569 -118.3667 262° West 158 182 900 -726 Descending Los Angeles Center
Tue 09:57:49 AM 33.9517 -118.4158 263° West 149 171 200 -677 Descending Los Angeles Center
Tue 09:59:00 AM 33.9425 -118.4081 228° Southwest  Level Estimated
Tue 10:06:00 AM 33.9425 -118.4081 228° Southwest  Level Estimated

Login

Don't have an account? Register now (free) for customized features, flight alerts, and more!